createdAt,value
2022-12-12T00:02:58.972Z,28.80
2022-12-12T00:07:03.099Z,24.67
2022-12-12T00:11:07.994Z,26.27
2022-12-12T00:15:11.763Z,24.23
2022-12-12T00:19:14.840Z,26.90
2022-12-12T00:23:18.978Z,25.43
2022-12-12T00:27:22.178Z,29.23
2022-12-12T00:31:25.251Z,24.20
2022-12-12T00:35:28.026Z,24.90
2022-12-12T00:39:32.113Z,22.77
2022-12-12T00:43:35.062Z,25.47
2022-12-12T00:47:37.842Z,22.00
2022-12-12T00:51:40.599Z,24.50
2022-12-12T00:55:44.708Z,24.27
2022-12-12T00:59:47.517Z,26.70
2022-12-12T01:03:51.213Z,21.77
2022-12-12T01:07:54.623Z,25.17
2022-12-12T01:11:58.780Z,23.73
2022-12-12T01:16:01.606Z,26.93
2022-12-12T01:20:05.919Z,27.33
2022-12-12T01:24:08.706Z,25.67
2022-12-12T01:28:13.120Z,30.30
2022-12-12T01:32:15.822Z,24.57
2022-12-12T01:36:20.362Z,25.33
2022-12-12T01:40:29.885Z,31.83
2022-12-12T01:44:43.567Z,29.80
2022-12-12T01:48:52.571Z,25.53
2022-12-12T01:52:55.316Z,23.40
2022-12-12T01:57:02.649Z,21.80
2022-12-12T02:01:06.834Z,24.50
2022-12-12T02:05:18.033Z,25.53
2022-12-12T02:09:22.002Z,23.37
2022-12-12T02:13:27.226Z,23.60
2022-12-12T02:17:53.917Z,28.47
2022-12-12T02:22:01.988Z,23.10
2022-12-12T02:26:25.114Z,25.07
2022-12-12T02:30:36.716Z,27.20
2022-12-12T02:34:50.323Z,29.27
2022-12-12T02:38:58.133Z,29.73
2022-12-12T02:43:10.699Z,28.00
2022-12-12T02:47:17.137Z,26.63
2022-12-12T02:51:22.448Z,25.67
2022-12-12T02:55:25.178Z,27.73
2022-12-12T02:59:31.089Z,27.17
2022-12-12T03:03:57.184Z,26.13
2022-12-12T03:08:10.648Z,24.57
2022-12-12T03:12:22.801Z,25.93
2022-12-12T03:16:29.625Z,26.33
2022-12-12T03:20:42.617Z,26.17
2022-12-12T03:24:52.844Z,26.17
2022-12-12T03:29:02.690Z,29.20
2022-12-12T03:33:12.494Z,26.43
2022-12-12T03:37:20.891Z,26.53
2022-12-12T03:41:30.311Z,24.70
2022-12-12T03:45:38.799Z,27.37
2022-12-12T03:49:47.253Z,31.77
2022-12-12T03:53:54.641Z,33.03
2022-12-12T03:58:03.214Z,28.87
2022-12-12T04:02:16.491Z,31.67
2022-12-12T04:06:29.465Z,29.37
2022-12-12T04:10:57.692Z,26.77
2022-12-12T04:15:11.386Z,30.10
2022-12-12T04:19:43.965Z,31.13
2022-12-12T04:23:54.889Z,29.13
2022-12-12T04:28:04.699Z,30.50
2022-12-12T04:32:17.008Z,27.63
2022-12-12T04:36:24.365Z,26.33
2022-12-12T04:40:30.789Z,27.60
2022-12-12T04:44:36.093Z,26.03
2022-12-12T04:48:46.277Z,27.83
2022-12-12T04:52:50.224Z,30.53
2022-12-12T04:56:57.321Z,23.13
2022-12-12T05:01:08.459Z,22.60
2022-12-12T05:05:17.722Z,22.67
2022-12-12T05:09:21.157Z,23.17
2022-12-12T05:13:28.808Z,23.63
2022-12-12T05:17:41.165Z,24.50
2022-12-12T05:21:45.208Z,19.97
2022-12-12T05:25:47.968Z,24.57
2022-12-12T05:29:50.711Z,27.10
2022-12-12T05:33:53.397Z,24.90
2022-12-12T05:37:57.707Z,26.13
2022-12-12T05:42:00.472Z,29.07
2022-12-12T05:46:03.600Z,27.50
2022-12-12T05:50:07.482Z,36.20
2022-12-12T05:54:11.575Z,36.43
2022-12-12T05:58:14.292Z,30.87
2022-12-12T06:02:17.378Z,32.10
2022-12-12T06:06:20.176Z,34.07
2022-12-12T06:10:24.319Z,31.97
2022-12-12T06:14:27.300Z,31.73
2022-12-12T06:18:30.021Z,27.53
2022-12-12T06:22:32.908Z,27.73
2022-12-12T06:26:36.982Z,27.07
2022-12-12T06:30:39.756Z,30.60
2022-12-12T06:34:42.699Z,24.93
2022-12-12T06:38:45.731Z,28.70
2022-12-12T06:42:49.800Z,28.90
2022-12-12T06:46:52.544Z,29.97
2022-12-12T06:50:55.233Z,30.00
2022-12-12T06:54:57.947Z,28.30
2022-12-12T06:59:02.003Z,26.27
2022-12-12T07:03:04.939Z,29.17
2022-12-12T07:07:07.723Z,28.60
2022-12-12T07:11:14.830Z,35.27
2022-12-12T07:15:19.407Z,31.63
2022-12-12T07:19:22.623Z,34.93
2022-12-12T07:23:25.395Z,34.60
2022-12-12T07:27:28.606Z,29.77
2022-12-12T07:31:32.902Z,31.43
2022-12-12T07:35:36.106Z,41.20
2022-12-12T07:39:39.165Z,41.20
2022-12-12T07:43:44.970Z,38.23
2022-12-12T07:47:49.291Z,28.53
2022-12-12T07:51:52.804Z,38.23
2022-12-12T07:55:56.405Z,31.20
2022-12-12T07:59:59.146Z,32.27
2022-12-12T08:04:05.595Z,29.73
2022-12-12T08:08:08.389Z,34.07
2022-12-12T08:12:11.214Z,36.80
2022-12-12T08:16:16.287Z,31.33
2022-12-12T08:20:20.437Z,31.60
2022-12-12T08:24:23.138Z,33.30
2022-12-12T08:28:25.863Z,37.63
2022-12-12T08:32:28.790Z,33.70
2022-12-12T08:36:34.874Z,34.77
2022-12-12T08:40:37.554Z,41.63
2022-12-12T08:44:40.336Z,38.03
2022-12-12T08:48:43.088Z,35.23
2022-12-12T08:52:47.195Z,36.13
2022-12-12T08:56:49.929Z,39.43
2022-12-12T09:00:52.926Z,34.63
2022-12-12T09:04:55.637Z,37.60
2022-12-12T09:08:59.890Z,40.00
2022-12-12T09:13:02.670Z,35.17
2022-12-12T09:17:05.455Z,38.57
2022-12-12T09:21:08.215Z,34.60
2022-12-12T09:25:12.968Z,39.33
2022-12-12T09:29:16.187Z,36.60
2022-12-12T09:33:19.979Z,32.33
2022-12-12T09:37:22.825Z,35.97
2022-12-12T09:41:27.942Z,34.93
2022-12-12T09:45:33.956Z,31.77
2022-12-12T09:49:44.245Z,39.50
2022-12-12T09:53:48.092Z,41.60
2022-12-12T09:57:58.739Z,38.47
2022-12-12T10:02:12.963Z,41.17
2022-12-12T10:10:42.133Z,38.07
2022-12-12T10:14:49.808Z,37.00
2022-12-12T10:18:56.073Z,38.83
2022-12-12T10:23:06.411Z,38.23
2022-12-12T10:27:11.446Z,38.00
2022-12-12T10:31:25.488Z,35.13
2022-12-12T10:35:35.400Z,44.07
2022-12-12T10:39:51.720Z,43.77
2022-12-12T10:44:03.678Z,44.83
2022-12-12T10:48:08.040Z,46.57
2022-12-12T10:52:18.408Z,47.47
2022-12-12T10:56:23.113Z,46.43
2022-12-12T11:00:30.749Z,48.60
2022-12-12T11:04:35.512Z,49.83
2022-12-12T11:08:38.797Z,52.50
2022-12-12T11:12:41.514Z,46.77
2022-12-12T11:16:45.599Z,51.97
2022-12-12T11:20:51.856Z,50.80
2022-12-12T11:24:54.815Z,51.60
2022-12-12T11:29:01.292Z,53.07
2022-12-12T11:33:05.885Z,54.67
2022-12-12T11:37:16.889Z,62.63
2022-12-12T11:41:20.012Z,62.00
2022-12-12T11:45:24.903Z,67.60
2022-12-12T11:49:27.614Z,64.70
2022-12-12T11:53:35.148Z,67.93
2022-12-12T11:58:01.837Z,69.27
2022-12-12T12:02:25.451Z,65.30
2022-12-12T12:06:41.165Z,61.77
2022-12-12T12:10:57.266Z,65.73
2022-12-12T12:15:23.809Z,60.00
2022-12-12T12:19:34.551Z,70.03
2022-12-12T12:23:50.408Z,66.07
2022-12-12T12:28:04.519Z,66.50
2022-12-12T12:32:13.930Z,68.77
2022-12-12T12:36:22.545Z,72.93
2022-12-12T12:40:38.646Z,71.37
2022-12-12T12:44:50.731Z,67.30
2022-12-12T12:48:56.838Z,65.77
2022-12-12T12:53:05.499Z,73.17
2022-12-12T12:57:12.623Z,64.63
2022-12-12T13:01:23.527Z,65.63
2022-12-12T13:05:34.627Z,58.90
2022-12-12T13:09:42.907Z,50.20
2022-12-12T13:13:49.437Z,47.93
2022-12-12T13:18:01.224Z,49.30
2022-12-12T13:22:09.366Z,54.17
2022-12-12T13:26:18.674Z,52.27
2022-12-12T13:30:25.127Z,46.03
2022-12-12T13:34:33.187Z,45.07
2022-12-12T13:38:36.108Z,46.23
2022-12-12T13:42:56.050Z,50.33
2022-12-12T13:46:58.802Z,46.37
2022-12-12T13:51:35.723Z,40.80
2022-12-12T13:55:40.388Z,39.97
2022-12-12T14:00:20.269Z,44.77
2022-12-12T14:04:29.962Z,41.13
2022-12-12T14:08:37.729Z,46.67
2022-12-12T14:12:40.688Z,42.93
2022-12-12T14:16:43.534Z,41.20
2022-12-12T14:20:56.094Z,39.23
2022-12-12T14:25:09.435Z,43.33
2022-12-12T14:29:27.235Z,38.83
2022-12-12T14:33:59.459Z,40.60
2022-12-12T14:38:16.032Z,36.03
2022-12-12T14:42:27.659Z,34.87
2022-12-12T14:46:50.405Z,36.20
2022-12-12T14:51:01.063Z,34.93
2022-12-12T14:55:05.534Z,35.53
2022-12-12T14:59:16.888Z,29.17
2022-12-12T15:03:25.739Z,31.97
2022-12-12T15:07:30.114Z,39.73
2022-12-12T15:11:33.766Z,34.57
2022-12-12T15:15:37.959Z,36.70
2022-12-12T15:19:42.710Z,35.03
2022-12-12T15:23:45.450Z,33.00
2022-12-12T15:27:55.724Z,34.47
2022-12-12T15:32:04.857Z,33.00
2022-12-12T15:36:18.627Z,36.87
2022-12-12T15:40:26.202Z,32.13
2022-12-12T15:44:29.365Z,32.60
2022-12-12T15:48:33.556Z,33.27
2022-12-12T15:52:36.669Z,34.90
2022-12-12T15:56:39.445Z,32.07
2022-12-12T16:00:42.443Z,34.23
2022-12-12T16:05:05.047Z,34.30
2022-12-12T16:09:17.613Z,32.73
2022-12-12T16:13:26.120Z,36.17
2022-12-12T16:17:30.035Z,37.53
2022-12-12T16:21:36.528Z,40.93
2022-12-12T16:25:40.392Z,38.97
2022-12-12T16:29:43.672Z,41.37
2022-12-12T16:33:46.426Z,44.77
2022-12-12T16:37:51.244Z,43.57
2022-12-12T16:41:54.078Z,43.83
2022-12-12T16:45:59.224Z,43.60
2022-12-12T16:50:02.106Z,50.07
2022-12-12T16:54:06.629Z,51.83
2022-12-12T16:58:09.588Z,56.20
2022-12-12T17:02:19.353Z,53.20
2022-12-12T17:06:22.172Z,36.60
2022-12-12T17:10:26.824Z,42.70
2022-12-12T17:14:29.585Z,49.33
2022-12-12T17:18:32.379Z,44.80
2022-12-12T17:22:35.437Z,52.07
2022-12-12T17:26:39.878Z,49.20
2022-12-12T17:30:42.781Z,43.83
2022-12-12T17:34:45.593Z,42.93
2022-12-12T17:38:48.528Z,45.63
2022-12-12T17:42:52.706Z,51.47
2022-12-12T17:46:55.687Z,47.30
2022-12-12T17:50:59.832Z,43.67
2022-12-12T17:55:53.900Z,52.33
2022-12-12T17:59:26.937Z,49.37
2022-12-12T18:03:30.664Z,51.83
2022-12-12T18:07:33.412Z,45.83
2022-12-12T18:11:38.215Z,48.77
2022-12-12T18:15:44.300Z,50.27
2022-12-12T18:19:47.177Z,48.50
2022-12-12T18:23:50.781Z,46.97
2022-12-12T18:27:53.632Z,49.30
2022-12-12T18:31:58.062Z,52.33
2022-12-12T18:36:02.960Z,51.90
2022-12-12T18:40:07.304Z,49.43
2022-12-12T18:44:13.800Z,46.53
2022-12-12T18:48:17.885Z,53.53
2022-12-12T18:52:20.624Z,46.23
2022-12-12T18:56:25.437Z,54.77
2022-12-12T19:00:28.633Z,48.27
2022-12-12T19:04:32.704Z,47.80
2022-12-12T19:08:35.446Z,53.63
2022-12-12T19:12:38.167Z,58.53
2022-12-12T19:16:41.156Z,52.50
2022-12-12T19:20:45.369Z,73.60
2022-12-12T19:24:48.163Z,61.93
2022-12-12T19:28:50.951Z,58.33
2022-12-12T19:32:53.760Z,50.13
2022-12-12T19:36:57.841Z,55.60
2022-12-12T19:41:03.652Z,50.37
2022-12-12T19:45:07.439Z,45.70
2022-12-12T19:49:12.748Z,44.13
2022-12-12T19:53:16.813Z,45.10
2022-12-12T19:57:20.990Z,46.37
2022-12-12T20:01:27.198Z,48.90
2022-12-12T20:05:30.825Z,42.83
2022-12-12T20:09:36.754Z,51.10
2022-12-12T20:13:40.255Z,46.57
2022-12-12T20:17:43.016Z,51.77
2022-12-12T20:22:03.590Z,54.27
2022-12-12T20:26:10.551Z,58.53
2022-12-12T20:30:13.857Z,58.33
2022-12-12T20:34:18.505Z,61.57
2022-12-12T20:38:21.223Z,57.53
2022-12-12T20:42:25.346Z,65.30
2022-12-12T20:46:30.602Z,65.60
2022-12-12T20:50:33.562Z,58.77
2022-12-12T20:54:37.058Z,60.27
2022-12-12T20:58:41.857Z,63.10
2022-12-12T21:02:44.637Z,56.23
2022-12-12T21:06:49.602Z,57.90
2022-12-12T21:10:52.728Z,55.97
2022-12-12T21:15:02.458Z,61.00
2022-12-12T21:19:08.615Z,52.60
2022-12-12T21:23:11.383Z,62.77
2022-12-12T21:27:14.419Z,54.97
2022-12-12T21:31:21.156Z,52.53
2022-12-12T21:35:24.419Z,56.20
2022-12-12T21:39:28.973Z,54.30
2022-12-12T21:43:32.021Z,50.33
2022-12-12T21:47:37.119Z,55.67
2022-12-12T21:51:40.803Z,54.97
2022-12-12T21:55:43.578Z,51.13
2022-12-12T21:59:48.738Z,54.60
2022-12-12T22:03:52.904Z,50.70
2022-12-12T22:07:55.742Z,52.60
2022-12-12T22:12:03.401Z,50.73
2022-12-12T22:16:10.512Z,53.77
2022-12-12T22:20:14.811Z,49.33
2022-12-12T22:24:18.461Z,52.20
2022-12-12T22:28:21.198Z,57.53
2022-12-12T22:32:23.903Z,57.47
2022-12-12T22:36:29.760Z,53.07
2022-12-12T22:40:32.503Z,51.40
2022-12-12T22:44:35.228Z,54.33
2022-12-12T22:48:38.019Z,51.83
2022-12-12T22:52:42.148Z,48.60
2022-12-12T22:56:45.189Z,47.43
2022-12-12T23:00:47.898Z,45.80
2022-12-12T23:04:50.789Z,46.63
2022-12-12T23:08:56.922Z,51.30
2022-12-12T23:12:59.598Z,46.07
2022-12-12T23:17:02.298Z,47.53
2022-12-12T23:21:05.854Z,49.40
2022-12-12T23:25:10.122Z,56.70
2022-12-12T23:29:16.729Z,48.97
2022-12-12T23:33:19.459Z,51.40
2022-12-12T23:37:23.921Z,51.87
2022-12-12T23:41:28.414Z,47.87
2022-12-12T23:45:31.219Z,45.97
2022-12-12T23:49:33.990Z,50.20
2022-12-12T23:53:36.750Z,45.63
2022-12-12T23:57:40.973Z,45.33
